sensor_id;sensor_type;location;lat;lon;timestamp;pressure;altitude;pressure_sealevel;temperature;humidity
23659;BME280;12006;42.666;23.326;2023-02-23T00:01:17;-18617.25;;;6.62;100.00
23659;BME280;12006;42.666;23.326;2023-02-23T00:03:44;-18617.75;;;6.64;100.00
23659;BME280;12006;42.666;23.326;2023-02-23T00:06:11;-18615.97;;;6.57;100.00
23659;BME280;12006;42.666;23.326;2023-02-23T00:08:37;-18613.53;;;6.48;100.00
23659;BME280;12006;42.666;23.326;2023-02-23T00:11:03;-18926.91;;;6.35;100.00
23659;BME280;12006;42.666;23.326;2023-02-23T00:13:31;-18926.13;;;6.32;100.00
23659;BME280;12006;42.666;23.326;2023-02-23T00:15:56;-19241.03;;;6.25;100.00
23659;BME280;12006;42.666;23.326;2023-02-23T00:18:22;-19239.81;;;6.21;100.00
23659;BME280;12006;42.666;23.326;2023-02-23T00:20:55;-19553.41;;;6.10;100.00
23659;BME280;12006;42.666;23.326;2023-02-23T00:23:22;-19869.03;;;6.07;100.00
23659;BME280;12006;42.666;23.326;2023-02-23T00:25:47;-20187.31;;;6.13;100.00
23659;BME280;12006;42.666;23.326;2023-02-23T00:28:13;-20190.41;;;6.24;100.00
23659;BME280;12006;42.666;23.326;2023-02-23T00:30:38;-20190.28;;;6.24;100.00
23659;BME280;12006;42.666;23.326;2023-02-23T00:33:03;-20187.19;;;6.13;100.00
23659;BME280;12006;42.666;23.326;2023-02-23T00:35:29;-20817.09;;;6.03;100.00
23659;BME280;12006;42.666;23.326;2023-02-23T00:37:54;-20818.44;;;6.07;100.00
23659;BME280;12006;42.666;23.326;2023-02-23T00:40:20;-20821.34;;;6.17;100.00
23659;BME280;12006;42.666;23.326;2023-02-23T00:42:47;-20189.00;;;6.19;100.00
23659;BME280;12006;42.666;23.326;2023-02-23T00:45:14;-19870.00;;;6.10;100.00
23659;BME280;12006;42.666;23.326;2023-02-23T00:47:41;-19868.91;;;6.06;100.00
23659;BME280;12006;42.666;23.326;2023-02-23T00:50:12;-19867.94;;;6.03;100.00
23659;BME280;12006;42.666;23.326;2023-02-23T00:52:40;-19865.31;;;5.94;100.00
23659;BME280;12006;42.666;23.326;2023-02-23T00:55:07;-20182.53;;;5.97;100.00
23659;BME280;12006;42.666;23.326;2023-02-23T00:57:33;-20182.25;;;5.96;100.00
23659;BME280;12006;42.666;23.326;2023-02-23T00:59:58;-20181.97;;;5.95;100.00
23659;BME280;12006;42.666;23.326;2023-02-23T01:02:24;-20498.31;;;5.95;100.00
23659;BME280;12006;42.666;23.326;2023-02-23T01:04:49;-20498.75;;;5.96;100.00
23659;BME280;12006;42.666;23.326;2023-02-23T01:07:15;-20494.56;;;5.82;100.00
23659;BME280;12006;42.666;23.326;2023-02-23T01:09:40;-20809.66;;;5.78;100.00
23659;BME280;12006;42.666;23.326;2023-02-23T01:12:06;-21128.25;;;5.86;100.00
23659;BME280;12006;42.666;23.326;2023-02-23T01:14:32;-20496.28;;;5.88;100.00
23659;BME280;12006;42.666;23.326;2023-02-23T01:16:58;-20496.59;;;5.89;100.00
23659;BME280;12006;42.666;23.326;2023-02-23T01:19:24;-20496.44;;;5.88;100.00
23659;BME280;12006;42.666;23.326;2023-02-23T01:21:49;-20497.16;;;5.91;100.00
23659;BME280;12006;42.666;23.326;2023-02-23T01:24:15;-20496.59;;;5.89;100.00
23659;BME280;12006;42.666;23.326;2023-02-23T01:26:42;-20495.72;;;5.86;100.00
23659;BME280;12006;42.666;23.326;2023-02-23T01:29:15;-20492.56;;;5.75;100.00
23659;BME280;12006;42.666;23.326;2023-02-23T01:31:44;-20491.41;;;5.71;100.00
23659;BME280;12006;42.666;23.326;2023-02-23T01:34:11;-20805.56;;;5.64;100.00
23659;BME280;12006;42.666;23.326;2023-02-23T01:36:38;-21119.59;;;5.57;100.00
23659;BME280;12006;42.666;23.326;2023-02-23T01:39:07;-21436.72;;;5.60;100.00
23659;BME280;12006;42.666;23.326;2023-02-23T01:41:35;-21436.88;;;5.61;100.00
23659;BME280;12006;42.666;23.326;2023-02-23T01:46:30;-21437.50;;;5.63;100.00
23659;BME280;12006;42.666;23.326;2023-02-23T01:48:56;-21434.16;;;5.52;100.00
23659;BME280;12006;42.666;23.326;2023-02-23T01:51:25;-22067.75;;;5.57;100.00
23659;BME280;12006;42.666;23.326;2023-02-23T01:54:11;-21753.25;;;5.62;100.00
23659;BME280;12006;42.666;23.326;2023-02-23T01:56:42;-21436.59;;;5.60;100.00
23659;BME280;12006;42.666;23.326;2023-02-23T01:59:10;-21434.16;;;5.52;100.00
23659;BME280;12006;42.666;23.326;2023-02-23T02:01:38;-21435.69;;;5.57;100.00
23659;BME280;12006;42.666;23.326;2023-02-23T02:04:05;-21750.19;;;5.52;100.00
23659;BME280;12006;42.666;23.326;2023-02-23T02:06:33;-21750.94;;;5.54;100.00
23659;BME280;12006;42.666;23.326;2023-02-23T02:09:02;-21434.16;;;5.52;100.00
23659;BME280;12006;42.666;23.326;2023-02-23T02:11:31;-21749.56;;;5.50;100.00
23659;BME280;12006;42.666;23.326;2023-02-23T02:14:08;-21748.63;;;5.47;100.00
23659;BME280;12006;42.666;23.326;2023-02-23T02:28:56;-22060.84;;;5.35;100.00
23659;BME280;12006;42.666;23.326;2023-02-23T02:53:21;-22053.78;;;5.13;100.00
23659;BME280;12006;42.666;23.326;2023-02-23T02:55:48;-22371.78;;;5.20;100.00
23659;BME280;12006;42.666;23.326;2023-02-23T02:58:16;-22372.13;;;5.21;100.00
23659;BME280;12006;42.666;23.326;2023-02-23T03:00:45;-22371.94;;;5.20;100.00
23659;BME280;12006;42.666;23.326;2023-02-23T03:03:39;-22369.72;;;5.13;100.00
23659;BME280;12006;42.666;23.326;2023-02-23T03:06:28;-22368.13;;;5.08;100.00
23659;BME280;12006;42.666;23.326;2023-02-23T03:09:35;-22681.56;;;5.01;100.00
23659;BME280;12006;42.666;23.326;2023-02-23T03:21:28;-23000.03;;;5.10;100.00
23659;BME280;12006;42.666;23.326;2023-02-23T03:27:10;-22996.25;;;4.98;100.00
23659;BME280;12006;42.666;23.326;2023-02-23T03:30:02;-22683.53;;;5.07;100.00
23659;BME280;12006;42.666;23.326;2023-02-23T03:32:54;-22680.59;;;4.98;100.00
23659;BME280;12006;42.666;23.326;2023-02-23T03:38:38;-22678.66;;;4.92;100.00
23659;BME280;12006;42.666;23.326;2023-02-23T03:41:26;-22994.09;;;4.92;100.00
23659;BME280;12006;42.666;23.326;2023-02-23T03:44:16;-22992.31;;;4.86;100.00
23659;BME280;12006;42.666;23.326;2023-02-23T03:47:02;-22992.31;;;4.86;100.00
23659;BME280;12006;42.666;23.326;2023-02-23T03:49:49;-22989.66;;;4.79;100.00
23659;BME280;12006;42.666;23.326;2023-02-23T03:52:44;-22987.38;;;4.72;100.00
23659;BME280;12006;42.666;23.326;2023-02-23T03:55:33;-23301.50;;;4.68;100.00
23659;BME280;12006;42.666;23.326;2023-02-23T03:58:23;-23615.41;;;4.63;100.00
23659;BME280;12006;42.666;23.326;2023-02-23T04:01:11;-23616.59;;;4.67;100.00
23659;BME280;12006;42.666;23.326;2023-02-23T04:03:57;-23931.97;;;4.67;100.00
23659;BME280;12006;42.666;23.326;2023-02-23T04:06:44;-23935.91;;;4.73;100.00
23659;BME280;12006;42.666;23.326;2023-02-23T04:09:30;-23935.53;;;4.72;100.00
23659;BME280;12006;42.666;23.326;2023-02-23T04:12:20;-23933.47;;;4.66;100.00
23659;BME280;12006;42.666;23.326;2023-02-23T04:15:39;-23934.53;;;4.69;100.00
23659;BME280;12006;42.666;23.326;2023-02-23T04:18:03;-23936.06;;;4.73;100.00
23659;BME280;12006;42.666;23.326;2023-02-23T04:20:29;-23936.56;;;4.75;100.00
23659;BME280;12006;42.666;23.326;2023-02-23T04:22:55;-23934.88;;;4.70;100.00
23659;BME280;12006;42.666;23.326;2023-02-23T04:25:20;-23935.53;;;4.72;100.00
23659;BME280;12006;42.666;23.326;2023-02-23T04:27:49;-23934.69;;;4.69;100.00
23659;BME280;12006;42.666;23.326;2023-02-23T04:30:14;-23938.66;;;4.80;100.00
23659;BME280;12006;42.666;23.326;2023-02-23T04:32:40;-23938.66;;;4.80;100.00
23659;BME280;12006;42.666;23.326;2023-02-23T04:35:06;-23940.38;;;4.85;100.00
23659;BME280;12006;42.666;23.326;2023-02-23T04:37:31;-23937.63;;;4.78;100.00
23659;BME280;12006;42.666;23.326;2023-02-23T04:39:57;-23935.53;;;4.72;100.00
23659;BME280;12006;42.666;23.326;2023-02-23T04:42:22;-23935.53;;;4.72;100.00
23659;BME280;12006;42.666;23.326;2023-02-23T04:44:48;-23937.97;;;4.79;100.00
23659;BME280;12006;42.666;23.326;2023-02-23T04:47:14;-23937.97;;;4.79;100.00
23659;BME280;12006;42.666;23.326;2023-02-23T04:49:39;-23938.66;;;4.80;100.00
23659;BME280;12006;42.666;23.326;2023-02-23T04:52:05;-23938.66;;;4.80;100.00
23659;BME280;12006;42.666;23.326;2023-02-23T04:54:30;-23935.72;;;4.72;100.00
23659;BME280;12006;42.666;23.326;2023-02-23T04:56:56;-23934.53;;;4.69;100.00
23659;BME280;12006;42.666;23.326;2023-02-23T04:59:21;-23932.78;;;4.64;100.00
23659;BME280;12006;42.666;23.326;2023-02-23T05:01:47;-23932.97;;;4.64;100.00
23659;BME280;12006;42.666;23.326;2023-02-23T05:04:12;-23932.09;;;4.62;100.00
23659;BME280;12006;42.666;23.326;2023-02-23T05:06:38;-23932.09;;;4.62;100.00
23659;BME280;12006;42.666;23.326;2023-02-23T05:09:03;-23934.34;;;4.68;100.00
23659;BME280;12006;42.666;23.326;2023-02-23T05:11:31;-23934.00;;;4.67;100.00
23659;BME280;12006;42.666;23.326;2023-02-23T05:13:57;-23933.66;;;4.66;100.00
23659;BME280;12006;42.666;23.326;2023-02-23T05:16:22;-23931.41;;;4.60;100.00
23659;BME280;12006;42.666;23.326;2023-02-23T05:18:47;-23930.56;;;4.57;100.00
23659;BME280;12006;42.666;23.326;2023-02-23T05:21:13;-23930.38;;;4.57;100.00
23659;BME280;12006;42.666;23.326;2023-02-23T05:23:39;-23931.41;;;4.60;100.00
23659;BME280;12006;42.666;23.326;2023-02-23T05:26:07;-23930.03;;;4.56;100.00
23659;BME280;12006;42.666;23.326;2023-02-23T05:28:35;-23926.09;;;4.44;100.00
23659;BME280;12006;42.666;23.326;2023-02-23T05:31:01;-23926.94;;;4.47;100.00
23659;BME280;12006;42.666;23.326;2023-02-23T05:33:28;-23920.75;;;4.29;100.00
23659;BME280;12006;42.666;23.326;2023-02-23T05:35:53;-23931.75;;;4.61;100.00
23659;BME280;12006;42.666;23.326;2023-02-23T05:38:19;-23934.16;;;4.68;100.00
23659;BME280;12006;42.666;23.326;2023-02-23T05:40:45;-23937.97;;;4.79;100.00
23659;BME280;12006;42.666;23.326;2023-02-23T05:43:10;-23937.78;;;4.78;100.00
23659;BME280;12006;42.666;23.326;2023-02-23T05:45:42;-23936.94;;;4.76;100.00
23659;BME280;12006;42.666;23.326;2023-02-23T05:48:08;-23936.94;;;4.76;100.00
23659;BME280;12006;42.666;23.326;2023-02-23T05:50:34;-23928.31;;;4.51;100.00
23659;BME280;12006;42.666;23.326;2023-02-23T05:53:00;-23939.16;;;4.82;100.00
23659;BME280;12006;42.666;23.326;2023-02-23T05:55:25;-23938.66;;;4.80;100.00
23659;BME280;12006;42.666;23.326;2023-02-23T05:57:51;-23937.78;;;4.78;100.00
23659;BME280;12006;42.666;23.326;2023-02-23T06:00:17;-23937.97;;;4.79;100.00
23659;BME280;12006;42.666;23.326;2023-02-23T06:02:42;-23941.75;;;4.89;100.00
23659;BME280;12006;42.666;23.326;2023-02-23T06:05:10;-23944.69;;;4.98;100.00
23659;BME280;12006;42.666;23.326;2023-02-23T06:07:37;-23945.19;;;4.99;100.00
23659;BME280;12006;42.666;23.326;2023-02-23T06:10:03;-23950.19;;;5.14;100.00
23659;BME280;12006;42.666;23.326;2023-02-23T06:12:29;-23953.78;;;5.24;100.00
23659;BME280;12006;42.666;23.326;2023-02-23T06:14:54;-23955.50;;;5.29;100.00
23659;BME280;12006;42.666;23.326;2023-02-23T06:17:19;-23953.78;;;5.24;100.00
23659;BME280;12006;42.666;23.326;2023-02-23T06:19:45;-23958.44;;;5.38;100.00
23659;BME280;12006;42.666;23.326;2023-02-23T06:22:10;-23963.94;;;5.53;100.00
23659;BME280;12006;42.666;23.326;2023-02-23T06:24:36;-23970.84;;;5.73;100.00
23659;BME280;12006;42.666;23.326;2023-02-23T06:27:01;-23973.94;;;5.82;100.00
23659;BME280;12006;42.666;23.326;2023-02-23T06:29:26;-23981.34;;;6.03;100.00
23659;BME280;12006;42.666;23.326;2023-02-23T06:31:52;-23987.19;;;6.20;100.00
23659;BME280;12006;42.666;23.326;2023-02-23T06:34:17;-23986.88;;;6.25;100.00
23659;BME280;12006;42.666;23.326;2023-02-23T06:36:43;-23990.84;;;6.36;100.00
23659;BME280;12006;42.666;23.326;2023-02-23T06:39:10;-23672.53;;;6.30;100.00
23659;BME280;12006;42.666;23.326;2023-02-23T06:41:36;-23674.91;;;6.37;100.00
23659;BME280;12006;42.666;23.326;2023-02-23T06:44:01;-23675.91;;;6.40;100.00
23659;BME280;12006;42.666;23.326;2023-02-23T06:46:27;-23681.16;;;6.56;100.00
23659;BME280;12006;42.666;23.326;2023-02-23T06:48:56;-23368.44;;;6.66;100.00
23659;BME280;12006;42.666;23.326;2023-02-23T06:51:22;-23371.44;;;6.75;100.00
23659;BME280;12006;42.666;23.326;2023-02-23T06:53:48;-23375.09;;;6.86;100.00
23659;BME280;12006;42.666;23.326;2023-02-23T06:56:13;-23378.63;;;6.97;100.00
23659;BME280;12006;42.666;23.326;2023-02-23T06:58:39;-23383.28;;;7.11;100.00
23659;BME280;12006;42.666;23.326;2023-02-23T07:01:05;-23066.72;;;7.11;100.00
23659;BME280;12006;42.666;23.326;2023-02-23T07:03:30;-23074.44;;;7.34;100.00
23659;BME280;12006;42.666;23.326;2023-02-23T07:05:56;-22761.47;;;7.46;100.00
23659;BME280;12006;42.666;23.326;2023-02-23T07:08:22;-22443.56;;;7.43;100.00
23659;BME280;12006;42.666;23.326;2023-02-23T07:10:47;-22447.84;;;7.57;100.00
23659;BME280;12006;42.666;23.326;2023-02-23T07:13:12;-22451.19;;;7.67;100.00
23659;BME280;12006;42.666;23.326;2023-02-23T07:15:40;-22136.59;;;7.75;100.00
23659;BME280;12006;42.666;23.326;2023-02-23T07:18:06;-22138.16;;;7.80;100.00
23659;BME280;12006;42.666;23.326;2023-02-23T07:20:32;-22145.03;;;8.02;100.00
23659;BME280;12006;42.666;23.326;2023-02-23T07:22:59;-21830.22;;;8.10;100.00
23659;BME280;12006;42.666;23.326;2023-02-23T07:25:27;-21514.06;;;8.14;100.00
23659;BME280;12006;42.666;23.326;2023-02-23T07:27:54;-21834.53;;;8.24;100.00
23659;BME280;12006;42.666;23.326;2023-02-23T07:30:20;-21835.28;;;8.26;100.00
23659;BME280;12006;42.666;23.326;2023-02-23T07:32:52;-21836.38;;;8.30;100.00
23659;BME280;12006;42.666;23.326;2023-02-23T07:35:18;-22161.16;;;8.53;100.00
23659;BME280;12006;42.666;23.326;2023-02-23T07:37:44;-21847.59;;;8.66;100.00
23659;BME280;12006;42.666;23.326;2023-02-23T07:40:10;-21842.38;;;8.49;100.00
23659;BME280;12006;42.666;23.326;2023-02-23T07:42:35;-21844.34;;;8.55;100.00
23659;BME280;12006;42.666;23.326;2023-02-23T07:45:01;-21851.75;;;8.79;100.00
23659;BME280;12006;42.666;23.326;2023-02-23T07:47:26;-21531.59;;;8.71;100.00
23659;BME280;12006;42.666;23.326;2023-02-23T07:49:59;-21531.13;;;8.70;100.00
23659;BME280;12006;42.666;23.326;2023-02-23T07:52:26;-21532.19;;;8.73;100.00
23659;BME280;12006;42.666;23.326;2023-02-23T07:54:52;-21535.97;;;8.86;100.00
23659;BME280;12006;42.666;23.326;2023-02-23T07:57:18;-21859.13;;;9.03;100.00
23659;BME280;12006;42.666;23.326;2023-02-23T07:59:47;-21865.25;;;9.23;100.00
23659;BME280;12006;42.666;23.326;2023-02-23T08:02:13;-21549.72;;;9.31;100.00
23659;BME280;12006;42.666;23.326;2023-02-23T08:04:39;-21553.66;;;9.44;100.00
23659;BME280;12006;42.666;23.326;2023-02-23T08:07:06;-21234.97;;;9.42;100.00
23659;BME280;12006;42.666;23.326;2023-02-23T08:09:32;-21555.16;;;9.49;100.00
23659;BME280;12006;42.666;23.326;2023-02-23T08:11:59;-21559.53;;;9.63;100.00
23659;BME280;12006;42.666;23.326;2023-02-23T08:14:25;-21242.53;;;9.67;100.00
23659;BME280;12006;42.666;23.326;2023-02-23T08:16:50;-21246.25;;;9.79;100.00
23659;BME280;12006;42.666;23.326;2023-02-23T08:19:16;-21248.63;;;9.87;100.00
23659;BME280;12006;42.666;23.326;2023-02-23T08:21:42;-21250.09;;;9.92;100.00
23659;BME280;12006;42.666;23.326;2023-02-23T08:24:07;-21250.84;;;9.95;100.00
23659;BME280;12006;42.666;23.326;2023-02-23T08:26:36;-21251.00;;;9.95;100.00
23659;BME280;12006;42.666;23.326;2023-02-23T08:29:03;-21573.44;;;10.09;100.00
23659;BME280;12006;42.666;23.326;2023-02-23T08:31:29;-21574.81;;;10.13;100.00
23659;BME280;12006;42.666;23.326;2023-02-23T08:33:54;-21573.88;;;10.10;100.00
23659;BME280;12006;42.666;23.326;2023-02-23T08:36:20;-21576.75;;;10.20;100.00
23659;BME280;12006;42.666;23.326;2023-02-23T08:38:46;-21579.78;;;10.29;100.00
23659;BME280;12006;42.666;23.326;2023-02-23T08:41:12;-21582.03;;;10.37;100.00
23659;BME280;12006;42.666;23.326;2023-02-23T08:43:37;-21586.88;;;10.53;100.00
23659;BME280;12006;42.666;23.326;2023-02-23T08:46:06;-21911.81;;;10.73;100.00
23659;BME280;12006;42.666;23.326;2023-02-23T08:48:32;-21918.69;;;10.95;100.00
23659;BME280;12006;42.666;23.326;2023-02-23T08:50:58;-21919.78;;;10.99;100.00
23659;BME280;12006;42.666;23.326;2023-02-23T08:53:24;-21923.91;;;11.12;100.00
23659;BME280;12006;42.666;23.326;2023-02-23T08:55:55;-22251.56;;;11.40;100.00
23659;BME280;12006;42.666;23.326;2023-02-23T08:58:20;-22253.75;;;11.47;100.00
23659;BME280;12006;42.666;23.326;2023-02-23T09:00:47;-22253.44;;;11.46;100.00
23659;BME280;12006;42.666;23.326;2023-02-23T09:03:13;-22254.69;;;11.50;100.00
23659;BME280;12006;42.666;23.326;2023-02-23T09:05:38;-22255.31;;;11.52;100.00
23659;BME280;12006;42.666;23.326;2023-02-23T09:08:04;-22260.63;;;11.69;99.33
23659;BME280;12006;42.666;23.326;2023-02-23T09:10:29;-22262.19;;;11.74;99.32
23659;BME280;12006;42.666;23.326;2023-02-23T09:12:56;-22587.75;;;11.94;98.32
23659;BME280;12006;42.666;23.326;2023-02-23T09:15:22;-22914.59;;;12.17;98.29
23659;BME280;12006;42.666;23.326;2023-02-23T09:17:47;-22918.94;;;12.30;96.96
23659;BME280;12006;42.666;23.326;2023-02-23T09:20:14;-22922.00;;;12.40;95.36
23659;BME280;12006;42.666;23.326;2023-02-23T09:22:41;-22930.06;;;12.65;91.71
23659;BME280;12006;42.666;23.326;2023-02-23T09:25:16;-22927.00;;;12.55;93.18
23659;BME280;12006;42.666;23.326;2023-02-23T09:27:46;-22931.19;;;12.68;89.74
23659;BME280;12006;42.666;23.326;2023-02-23T09:30:13;-22933.13;;;12.74;90.51
23659;BME280;12006;42.666;23.326;2023-02-23T09:32:46;-23257.41;;;12.88;89.26
23659;BME280;12006;42.666;23.326;2023-02-23T09:35:12;-22937.97;;;12.89;88.03
23659;BME280;12006;42.666;23.326;2023-02-23T09:37:43;-23262.31;;;13.03;90.37
23659;BME280;12006;42.666;23.326;2023-02-23T09:40:14;-23261.00;;;12.99;87.48
23659;BME280;12006;42.666;23.326;2023-02-23T09:45:25;-23598.72;;;13.52;83.22
23659;BME280;12006;42.666;23.326;2023-02-23T09:50:27;-23606.03;;;13.74;78.23
23659;BME280;12006;42.666;23.326;2023-02-23T09:52:58;-23604.03;;;13.68;81.15
23659;BME280;12006;42.666;23.326;2023-02-23T09:55:26;-23609.34;;;13.84;80.79
23659;BME280;12006;42.666;23.326;2023-02-23T09:57:51;-23935.63;;;14.02;78.60
23659;BME280;12006;42.666;23.326;2023-02-23T10:00:23;-23938.34;;;14.10;78.00
23659;BME280;12006;42.666;23.326;2023-02-23T10:05:23;-23948.78;;;14.41;75.33
23659;BME280;12006;42.666;23.326;2023-02-23T10:07:57;-23948.78;;;14.41;72.51
23659;BME280;12006;42.666;23.326;2023-02-23T10:18:29;-24289.81;;;15.00;68.38
23659;BME280;12006;42.666;23.326;2023-02-23T10:21:37;-24295.28;;;15.16;65.88
23659;BME280;12006;42.666;23.326;2023-02-23T10:27:13;-24299.75;;;15.29;67.52
23659;BME280;12006;42.666;23.326;2023-02-23T10:29:54;-24302.81;;;15.38;63.43
23659;BME280;12006;42.666;23.326;2023-02-23T10:32:27;-24298.03;;;15.24;65.31
23659;BME280;12006;42.666;23.326;2023-02-23T10:34:56;-24299.91;;;15.29;66.05
23659;BME280;12006;42.666;23.326;2023-02-23T10:37:24;-24309.16;;;15.56;64.01
23659;BME280;12006;42.666;23.326;2023-02-23T10:39:51;-24309.84;;;15.58;62.23
23659;BME280;12006;42.666;23.326;2023-02-23T10:42:23;-24310.19;;;15.59;62.38
23659;BME280;12006;42.666;23.326;2023-02-23T10:44:53;-24313.44;;;15.69;62.42
23659;BME280;12006;42.666;23.326;2023-02-23T10:47:25;-24316.84;;;15.78;61.16
23659;BME280;12006;42.666;23.326;2023-02-23T10:49:53;-24327.28;;;16.03;60.52
23659;BME280;12006;42.666;23.326;2023-02-23T10:52:40;-24326.94;;;16.02;60.07
23659;BME280;12006;42.666;23.326;2023-02-23T10:55:07;-24328.31;;;16.06;59.18
23659;BME280;12006;42.666;23.326;2023-02-23T10:57:46;-24328.31;;;16.06;60.12
23659;BME280;12006;42.666;23.326;2023-02-23T11:02:44;-24333.78;;;16.22;59.15
23659;BME280;12006;42.666;23.326;2023-02-23T11:05:32;-24336.88;;;16.31;58.25
23659;BME280;12006;42.666;23.326;2023-02-23T11:08:22;-24336.03;;;16.29;59.60
23659;BME280;12006;42.666;23.326;2023-02-23T11:18:40;-24350.72;;;16.71;57.57
23659;BME280;12006;42.666;23.326;2023-02-23T11:21:11;-24347.81;;;16.63;57.60
23659;BME280;12006;42.666;23.326;2023-02-23T11:23:38;-24355.00;;;16.84;57.66
23659;BME280;12006;42.666;23.326;2023-02-23T11:26:19;-24353.47;;;16.79;57.23
23659;BME280;12006;42.666;23.326;2023-02-23T11:28:51;-24359.78;;;16.98;56.95
23659;BME280;12006;42.666;23.326;2023-02-23T11:31:28;-24360.81;;;17.00;56.17
23659;BME280;12006;42.666;23.326;2023-02-23T11:33:55;-24359.09;;;16.96;55.73
23659;BME280;12006;42.666;23.326;2023-02-23T11:38:47;-24369.03;;;17.24;53.20
23659;BME280;12006;42.666;23.326;2023-02-23T11:41:22;-24371.25;;;17.31;54.17
23659;BME280;12006;42.666;23.326;2023-02-23T11:43:49;-24373.81;;;17.38;53.82
23659;BME280;12006;42.666;23.326;2023-02-23T11:46:15;-24377.75;;;17.50;53.59
23659;BME280;12006;42.666;23.326;2023-02-23T11:51:30;-24373.47;;;17.37;54.10
23659;BME280;12006;42.666;23.326;2023-02-23T11:53:56;-24378.59;;;17.52;53.36
23659;BME280;12006;42.666;23.326;2023-02-23T11:56:23;-24383.06;;;17.65;52.66
23659;BME280;12006;42.666;23.326;2023-02-23T11:59:02;-24376.22;;;17.45;53.13
23659;BME280;12006;42.666;23.326;2023-02-23T12:01:44;-24382.03;;;17.62;52.66
23659;BME280;12006;42.666;23.326;2023-02-23T12:04:34;-24386.13;;;17.74;52.03
23659;BME280;12006;42.666;23.326;2023-02-23T12:07:36;-24393.66;;;17.96;51.74
23659;BME280;12006;42.666;23.326;2023-02-23T12:10:21;-24387.50;;;17.78;51.78
23659;BME280;12006;42.666;23.326;2023-02-23T12:15:55;-24401.00;;;18.17;51.34
23659;BME280;12006;42.666;23.326;2023-02-23T12:18:41;-24408.34;;;18.38;50.32
23659;BME280;12006;42.666;23.326;2023-02-23T12:21:29;-24405.44;;;18.30;50.11
23659;BME280;12006;42.666;23.326;2023-02-23T12:27:35;-24399.97;;;18.14;49.95
23659;BME280;12006;42.666;23.326;2023-02-23T12:30:19;-24390.91;;;17.88;50.78
23659;BME280;12006;42.666;23.326;2023-02-23T12:33:11;-24398.09;;;18.09;50.55
23659;BME280;12006;42.666;23.326;2023-02-23T12:35:58;-24403.56;;;18.24;49.52
23659;BME280;12006;42.666;23.326;2023-02-23T12:38:52;-24399.28;;;18.12;50.36
23659;BME280;12006;42.666;23.326;2023-02-23T12:41:31;-24405.97;;;18.31;50.06
23659;BME280;12006;42.666;23.326;2023-02-23T12:44:18;-24407.16;;;18.35;49.72
23659;BME280;12006;42.666;23.326;2023-02-23T12:46:49;-24415.69;;;18.60;50.31
23659;BME280;12006;42.666;23.326;2023-02-23T12:49:47;-24414.31;;;18.56;50.46
23659;BME280;12006;42.666;23.326;2023-02-23T12:52:20;-24402.88;;;18.23;50.74
23659;BME280;12006;42.666;23.326;2023-02-23T12:54:46;-24397.75;;;18.08;51.30
23659;BME280;12006;42.666;23.326;2023-02-23T12:57:36;-24391.25;;;17.89;52.52
23659;BME280;12006;42.666;23.326;2023-02-23T13:03:06;-24387.50;;;17.78;52.74
23659;BME280;12006;42.666;23.326;2023-02-23T13:05:44;-24382.38;;;17.63;53.24
23659;BME280;12006;42.666;23.326;2023-02-23T13:11:11;-24377.94;;;17.50;53.94
23659;BME280;12006;42.666;23.326;2023-02-23T13:13:49;-24384.41;;;17.69;53.23
23659;BME280;12006;42.666;23.326;2023-02-23T13:16:23;-24386.63;;;17.75;53.28
23659;BME280;12006;42.666;23.326;2023-02-23T13:19:07;-24381.84;;;17.62;53.21
23659;BME280;12006;42.666;23.326;2023-02-23T13:24:18;-24382.53;;;17.63;53.34
23659;BME280;12006;42.666;23.326;2023-02-23T13:29:38;-24383.91;;;17.67;53.91
23659;BME280;12006;42.666;23.326;2023-02-23T13:32:10;-24379.97;;;17.56;53.24
23659;BME280;12006;42.666;23.326;2023-02-23T13:35:00;-24379.47;;;17.55;52.97
23659;BME280;12006;42.666;23.326;2023-02-23T13:37:33;-24381.34;;;17.60;52.66
23659;BME280;12006;42.666;23.326;2023-02-23T13:47:48;-24382.03;;;17.62;53.29
23659;BME280;12006;42.666;23.326;2023-02-23T13:50:28;-24380.31;;;17.57;53.30
23659;BME280;12006;42.666;23.326;2023-02-23T13:53:00;-24375.53;;;17.43;53.34
23659;BME280;12006;42.666;23.326;2023-02-23T13:55:34;-24378.94;;;17.53;52.90
23659;BME280;12006;42.666;23.326;2023-02-23T13:58:10;-24374.84;;;17.41;54.06
23659;BME280;12006;42.666;23.326;2023-02-23T14:00:39;-24375.19;;;17.42;53.74
23659;BME280;12006;42.666;23.326;2023-02-23T14:03:07;-24377.94;;;17.50;53.32
23659;BME280;12006;42.666;23.326;2023-02-23T14:05:44;-24386.13;;;17.74;53.02
23659;BME280;12006;42.666;23.326;2023-02-23T14:08:24;-24394.31;;;17.98;52.76
23659;BME280;12006;42.666;23.326;2023-02-23T14:10:52;-24397.22;;;18.06;52.67
23659;BME280;12006;42.666;23.326;2023-02-23T14:16:06;-24386.47;;;17.75;52.13
23659;BME280;12006;42.666;23.326;2023-02-23T14:18:33;-24381.34;;;17.60;51.75
23659;BME280;12006;42.666;23.326;2023-02-23T14:26:43;-24368.00;;;17.21;52.56
23659;BME280;12006;42.666;23.326;2023-02-23T14:32:00;-24361.50;;;17.02;57.38
23659;BME280;12006;42.666;23.326;2023-02-23T14:37:21;-24351.59;;;16.74;60.46
23659;BME280;12006;42.666;23.326;2023-02-23T14:39:50;-24340.31;;;16.41;61.59
23659;BME280;12006;42.666;23.326;2023-02-23T14:42:22;-24338.94;;;16.37;63.32
23659;BME280;12006;42.666;23.326;2023-02-23T14:44:48;-24340.31;;;16.41;62.69
23659;BME280;12006;42.666;23.326;2023-02-23T14:47:25;-24338.25;;;16.35;62.74
23659;BME280;12006;42.666;23.326;2023-02-23T14:49:59;-24333.28;;;16.26;63.76
23659;BME280;12006;42.666;23.326;2023-02-23T14:52:34;-24332.94;;;16.25;64.11
23659;BME280;12006;42.666;23.326;2023-02-23T14:57:37;-24337.91;;;16.34;63.94
23659;BME280;12006;42.666;23.326;2023-02-23T15:00:15;-24330.03;;;16.17;65.69
23659;BME280;12006;42.666;23.326;2023-02-23T15:05:36;-24324.56;;;16.01;65.97
23659;BME280;12006;42.666;23.326;2023-02-23T15:08:07;-24322.34;;;15.94;66.11
23659;BME280;12006;42.666;23.326;2023-02-23T15:10:36;-24317.19;;;15.79;67.41